Airfield :
LOGIN :

Register | Disclaimer

   EN    FR    IT 

 










Legend :    VFR   Marginal VFR   IFR   Intensive IFR   Very Intensive IFR
Visi :
Ceiling :
>= 8 km
>= 3000ft
5 to 8 km
1000 to 3000 ft
1500m to 5 km
500 to 1000 ft
800 to 1500m
200 to 500 ft
< 800m
< 200 ft
Symbols :   Thunderstorms  Fog  Heavy snow  Heavy precipitations  Wind > 20 kt
SIGMETs :     Misc.  Thunderstorms  Icing  Turbulence  Mountain Waves  Volcanic Ashes






- Airport Elevation : 290 ft
- IATA code : LAI


LFRO - Lannion

CURRENT METAR :
  • 241200Z AUTO 22019G29KT 190V250 9999 BKN017 BKN023 OVC028 11/08 Q1018

EXPIRED METARs :
  • 241130Z AUTO 23019G29KT 9999 BKN018 BKN024 OVC029 11/08 Q1018
  • 241100Z AUTO 23020G32KT 200V260 9999 BKN016 OVC022 11/08 Q1019
  • 241030Z AUTO 23020G34KT 9999 SCT011 BKN018 OVC023 11/09 Q1019
  • 241000Z AUTO 23019G29KT 9999 4800 OVC013 11/09 Q1020
  • 240930Z AUTO 22019G33KT 9999 BKN016 OVC021 11/09 Q1020

Expired Forecast.



MET'MAP, your aeronautical weather chart ! - Copyright ORBIFLY December 2007 - Disclaimer

ORBIFLY MET'MAP TEAM :

Programming & Development : Alexandra Zaïnal
Concept & original design : Baudouin d'Aumeries
Assistance for programming : Marc-Olivier Méhu
Technical & hardware support : Manuel Goepfert

Contact : metmap@orbifly.com




SOURCES & CREDITS :

   NOAA